createdAt,value
2022-12-15T00:00:51.867Z,25.67
2022-12-15T00:03:47.973Z,26.00
2022-12-15T00:06:35.313Z,27.25
2022-12-15T00:09:29.306Z,26.50
2022-12-15T00:12:18.412Z,25.75
2022-12-15T00:15:05.129Z,27.00
2022-12-15T00:17:52.374Z,26.25
2022-12-15T00:20:39.273Z,23.75
2022-12-15T00:23:28.519Z,26.33
2022-12-15T00:26:16.806Z,23.50
2022-12-15T00:29:04.084Z,24.00
2022-12-15T00:31:50.858Z,24.00
2022-12-15T00:34:38.394Z,22.00
2022-12-15T00:37:25.543Z,25.25
2022-12-15T00:39:59.050Z,25.00
2022-12-15T00:42:29.130Z,23.00
2022-12-15T00:44:57.743Z,23.00
2022-12-15T00:47:26.398Z,23.00
2022-12-15T00:50:13.488Z,23.25
2022-12-15T00:53:00.424Z,23.00
2022-12-15T00:55:47.448Z,23.00
2022-12-15T00:58:34.158Z,22.50
2022-12-15T01:01:29.276Z,23.00
2022-12-15T01:04:16.411Z,23.25
2022-12-15T01:07:03.793Z,23.00
2022-12-15T01:09:50.648Z,24.00
2022-12-15T01:12:37.895Z,22.75
2022-12-15T01:15:25.350Z,24.25
2022-12-15T01:18:13.255Z,22.25
2022-12-15T01:20:41.578Z,23.00
2022-12-15T01:23:10.257Z,23.25
2022-12-15T01:25:39.847Z,22.50
2022-12-15T01:28:08.410Z,21.33
2022-12-15T01:30:36.640Z,22.00
2022-12-15T01:33:06.578Z,23.00
2022-12-15T01:35:35.062Z,20.50
2022-12-15T01:38:03.596Z,22.00
2022-12-15T01:40:47.221Z,21.50
2022-12-15T01:43:20.219Z,21.50
2022-12-15T01:46:04.626Z,22.00
2022-12-15T01:48:42.946Z,22.00
2022-12-15T01:51:27.834Z,22.25
2022-12-15T01:54:24.127Z,22.00
2022-12-15T01:57:01.144Z,22.50
2022-12-15T01:59:33.914Z,21.25
2022-12-15T02:02:03.425Z,20.25
2022-12-15T02:04:32.953Z,23.67
2022-12-15T02:07:01.166Z,21.75
2022-12-15T02:09:30.232Z,20.00
2022-12-15T02:12:16.695Z,22.00
2022-12-15T02:14:57.574Z,22.00
2022-12-15T02:17:37.495Z,20.00
2022-12-15T02:20:12.799Z,20.00
2022-12-15T02:23:11.683Z,21.00
2022-12-15T02:26:00.825Z,20.33
2022-12-15T02:28:38.136Z,20.00
2022-12-15T02:31:36.470Z,21.00
2022-12-15T02:34:43.484Z,20.00
2022-12-15T02:37:22.856Z,20.00
2022-12-15T02:39:51.093Z,22.00
2022-12-15T02:42:20.205Z,19.00
2022-12-15T02:45:20.285Z,20.00
2022-12-15T02:48:12.174Z,21.00
2022-12-15T02:50:51.573Z,20.33
2022-12-15T02:53:50.458Z,20.25
2022-12-15T02:56:26.605Z,20.50
2022-12-15T02:59:03.905Z,21.25
2022-12-15T03:01:46.648Z,20.00
2022-12-15T03:04:16.359Z,19.25
2022-12-15T03:06:44.577Z,19.33
2022-12-15T03:09:32.425Z,20.00
2022-12-15T03:12:01.173Z,19.00
2022-12-15T03:14:30.205Z,20.00
2022-12-15T03:16:58.487Z,20.33
2022-12-15T03:19:27.868Z,19.00
2022-12-15T03:21:56.625Z,19.00
2022-12-15T03:24:25.281Z,20.00
2022-12-15T03:26:53.722Z,19.00
2022-12-15T03:29:22.453Z,19.00
2022-12-15T03:31:50.742Z,19.00
2022-12-15T03:34:20.557Z,20.25
2022-12-15T03:36:48.994Z,18.33
2022-12-15T03:39:17.613Z,19.00
2022-12-15T03:41:45.913Z,18.00
2022-12-15T03:44:14.755Z,19.25
2022-12-15T03:46:42.936Z,18.75
2022-12-15T03:49:11.583Z,20.25
2022-12-15T03:51:40.582Z,19.50
2022-12-15T03:54:09.124Z,19.00
2022-12-15T03:56:37.347Z,18.00
2022-12-15T03:59:06.314Z,19.00
2022-12-15T04:01:36.934Z,17.00
2022-12-15T04:04:05.988Z,18.00
2022-12-15T04:06:34.275Z,18.33
2022-12-15T04:09:02.948Z,19.00
2022-12-15T04:11:31.163Z,18.00
2022-12-15T04:13:59.883Z,19.00
2022-12-15T04:16:28.304Z,19.00
2022-12-15T04:19:16.307Z,19.00
2022-12-15T04:21:44.528Z,19.25
2022-12-15T04:24:31.371Z,20.00
2022-12-15T04:27:17.838Z,19.25
2022-12-15T04:30:05.088Z,20.25
2022-12-15T04:32:52.107Z,20.00
2022-12-15T04:35:39.318Z,20.33
2022-12-15T04:38:25.940Z,21.00
2022-12-15T04:41:13.031Z,21.00
2022-12-15T04:44:00.388Z,22.00
2022-12-15T04:46:47.312Z,20.00
2022-12-15T04:49:34.363Z,23.25
2022-12-15T04:52:21.680Z,21.33
2022-12-15T04:55:08.962Z,20.25
2022-12-15T04:57:57.104Z,22.00
2022-12-15T05:00:44.444Z,22.00
2022-12-15T05:03:31.798Z,22.00
2022-12-15T05:06:18.993Z,20.00
2022-12-15T05:09:06.179Z,20.25
2022-12-15T05:11:53.148Z,21.25
2022-12-15T05:14:40.341Z,20.00
2022-12-15T05:17:27.779Z,21.00
2022-12-15T05:20:15.197Z,21.25
2022-12-15T05:23:01.909Z,20.00
2022-12-15T05:25:49.281Z,21.00
2022-12-15T05:28:36.814Z,21.00
2022-12-15T05:31:25.994Z,20.00
2022-12-15T05:34:04.524Z,22.33
2022-12-15T05:36:34.289Z,21.00
2022-12-15T05:39:02.606Z,20.00
2022-12-15T05:41:31.849Z,20.50
2022-12-15T05:44:00.703Z,20.00
2022-12-15T05:46:29.621Z,20.00
2022-12-15T05:48:57.971Z,20.00
2022-12-15T05:51:26.679Z,22.50
2022-12-15T05:53:55.078Z,21.00
2022-12-15T05:56:25.632Z,22.00
2022-12-15T05:58:53.960Z,21.00
2022-12-15T06:01:25.371Z,20.50
2022-12-15T06:03:53.764Z,22.00
2022-12-15T06:06:22.661Z,22.00
2022-12-15T06:08:51.030Z,19.00
2022-12-15T06:11:21.059Z,22.00
2022-12-15T06:13:49.730Z,21.00
2022-12-15T06:16:21.521Z,20.00
2022-12-15T06:18:54.589Z,22.25
2022-12-15T06:21:25.841Z,21.50
2022-12-15T06:23:57.086Z,20.00
2022-12-15T06:26:39.458Z,20.00
2022-12-15T06:29:10.800Z,22.25
2022-12-15T06:31:41.273Z,23.00
2022-12-15T06:34:13.287Z,21.00
2022-12-15T06:36:43.265Z,22.00
2022-12-15T06:39:13.712Z,21.75
2022-12-15T06:41:44.125Z,20.00
2022-12-15T06:44:14.857Z,20.50
2022-12-15T06:46:43.911Z,22.50
2022-12-15T06:49:12.570Z,20.25
2022-12-15T06:51:42.350Z,22.50
2022-12-15T06:54:11.715Z,22.25
2022-12-15T06:56:40.509Z,22.00
2022-12-15T06:59:10.320Z,21.50
2022-12-15T07:01:39.376Z,20.33
2022-12-15T07:04:08.101Z,21.00
2022-12-15T07:06:38.769Z,22.00
2022-12-15T07:09:11.151Z,22.00
2022-12-15T07:11:41.008Z,24.00
2022-12-15T07:14:10.050Z,23.25
2022-12-15T07:16:39.274Z,24.00
2022-12-15T07:19:11.982Z,22.00
2022-12-15T07:21:41.649Z,22.00
2022-12-15T07:24:12.279Z,20.50
2022-12-15T07:26:43.230Z,23.00
2022-12-15T07:29:12.199Z,24.00
2022-12-15T07:31:41.102Z,23.00
2022-12-15T07:34:09.496Z,23.00
2022-12-15T07:36:39.332Z,23.00
2022-12-15T07:39:10.764Z,22.00
2022-12-15T07:41:40.795Z,22.25
2022-12-15T07:44:09.220Z,23.00
2022-12-15T07:46:38.066Z,22.00
2022-12-15T07:49:06.621Z,22.50
2022-12-15T07:51:35.361Z,24.00
2022-12-15T07:54:04.086Z,21.50
2022-12-15T07:56:38.882Z,21.00
2022-12-15T07:59:08.621Z,23.00
2022-12-15T08:01:37.688Z,22.50
2022-12-15T08:04:07.311Z,23.00
2022-12-15T08:06:37.340Z,22.00
2022-12-15T08:09:05.821Z,23.25
2022-12-15T08:11:35.508Z,22.25
2022-12-15T08:14:06.921Z,23.25
2022-12-15T08:16:39.454Z,24.00
2022-12-15T08:19:11.740Z,22.00
2022-12-15T08:21:41.105Z,22.00
2022-12-15T08:24:10.480Z,22.75
2022-12-15T08:26:39.307Z,22.75
2022-12-15T08:29:48.836Z,21.33
2022-12-15T08:32:02.372Z,22.00
2022-12-15T08:34:31.079Z,23.50
2022-12-15T08:36:59.566Z,21.00
2022-12-15T08:39:28.569Z,24.00
2022-12-15T08:41:56.916Z,23.00
2022-12-15T08:44:25.457Z,23.33
2022-12-15T08:46:53.919Z,23.00
2022-12-15T08:49:22.804Z,23.00
2022-12-15T08:51:51.968Z,22.00
2022-12-15T08:54:21.773Z,23.33
2022-12-15T08:56:50.439Z,22.00
2022-12-15T08:59:20.459Z,22.00
2022-12-15T09:01:49.231Z,21.00
2022-12-15T09:04:19.420Z,23.00
2022-12-15T09:06:50.852Z,21.75
2022-12-15T09:09:20.040Z,23.00
2022-12-15T09:11:48.917Z,22.50
2022-12-15T09:14:21.589Z,22.00
2022-12-15T09:16:54.143Z,21.33
2022-12-15T09:19:23.013Z,22.25
2022-12-15T09:21:51.322Z,23.00
2022-12-15T09:24:28.887Z,21.00
2022-12-15T09:27:03.566Z,24.00
2022-12-15T09:29:33.001Z,20.25
2022-12-15T09:32:01.786Z,22.00
2022-12-15T09:34:30.627Z,23.50
2022-12-15T09:36:59.366Z,22.00
2022-12-15T09:39:28.179Z,23.00
2022-12-15T09:42:00.203Z,23.50
2022-12-15T09:44:30.835Z,22.00
2022-12-15T09:47:12.291Z,20.25
2022-12-15T09:49:56.999Z,21.25
2022-12-15T09:52:46.689Z,22.00
2022-12-15T09:55:24.478Z,22.25
2022-12-15T09:57:56.029Z,21.50
2022-12-15T10:00:55.644Z,22.00
2022-12-15T10:03:37.287Z,22.00
2022-12-15T10:09:21.879Z,21.00
2022-12-15T10:11:59.696Z,21.00
2022-12-15T10:14:49.831Z,22.50
2022-12-15T10:17:28.825Z,23.00
2022-12-15T10:20:06.087Z,21.00
2022-12-15T10:22:37.398Z,22.00
2022-12-15T10:25:30.441Z,20.00
2022-12-15T10:28:18.108Z,21.50
2022-12-15T10:31:00.098Z,21.00
2022-12-15T10:33:36.798Z,20.00
2022-12-15T10:36:14.280Z,20.33
2022-12-15T10:38:50.236Z,22.00
2022-12-15T10:41:26.816Z,20.00
2022-12-15T10:43:56.475Z,21.25
2022-12-15T10:46:29.956Z,21.25
2022-12-15T10:49:02.731Z,21.25
2022-12-15T10:51:45.645Z,22.00
2022-12-15T10:54:15.936Z,19.50
2022-12-15T10:56:55.517Z,20.50
2022-12-15T10:59:28.889Z,20.00
2022-12-15T11:02:02.542Z,23.00
2022-12-15T11:04:32.732Z,20.25
2022-12-15T11:07:02.860Z,21.25
2022-12-15T11:09:37.208Z,21.25
2022-12-15T11:12:42.485Z,20.00
2022-12-15T11:15:41.729Z,22.00
2022-12-15T11:18:30.385Z,21.50
2022-12-15T11:21:21.975Z,22.00
2022-12-15T11:24:16.043Z,20.00
2022-12-15T11:27:17.712Z,21.00
2022-12-15T11:29:57.719Z,22.25
2022-12-15T11:32:34.796Z,21.00
2022-12-15T11:35:03.548Z,21.75
2022-12-15T11:37:39.649Z,20.25
2022-12-15T11:40:31.208Z,22.00
2022-12-15T11:43:19.586Z,20.33
2022-12-15T11:46:17.798Z,20.25
2022-12-15T11:49:05.085Z,22.50
2022-12-15T11:52:25.900Z,20.00
2022-12-15T11:55:00.341Z,21.33
2022-12-15T11:57:46.978Z,19.25
2022-12-15T12:00:22.091Z,19.00
2022-12-15T12:03:01.345Z,21.67
2022-12-15T12:05:48.887Z,20.25
2022-12-15T12:08:26.326Z,20.25
2022-12-15T12:11:14.159Z,21.25
2022-12-15T12:14:12.590Z,20.25
2022-12-15T12:16:52.986Z,20.25
2022-12-15T12:19:50.921Z,20.00
2022-12-15T12:22:25.891Z,20.25
2022-12-15T12:25:15.715Z,19.00
2022-12-15T12:27:55.635Z,21.00
2022-12-15T12:30:28.791Z,20.00
2022-12-15T12:33:19.693Z,19.25
2022-12-15T12:35:59.998Z,20.25
2022-12-15T12:38:35.370Z,18.25
2022-12-15T12:41:13.292Z,21.00
2022-12-15T12:43:50.353Z,19.00
2022-12-15T12:46:28.277Z,19.50
2022-12-15T12:49:08.369Z,18.00
2022-12-15T12:51:42.387Z,19.25
2022-12-15T12:54:40.511Z,18.00
2022-12-15T12:57:11.995Z,19.25
2022-12-15T12:59:48.931Z,18.25
2022-12-15T13:02:26.075Z,17.00
2022-12-15T13:05:00.293Z,17.25
2022-12-15T13:07:30.437Z,18.25
2022-12-15T13:10:09.244Z,18.00
2022-12-15T13:12:56.114Z,18.25
2022-12-15T13:15:27.980Z,17.00
2022-12-15T13:18:15.394Z,18.00
2022-12-15T13:20:48.839Z,17.00
2022-12-15T13:23:22.216Z,16.25
2022-12-15T13:25:56.799Z,16.00
2022-12-15T13:28:40.204Z,17.00
2022-12-15T13:31:21.593Z,17.00
2022-12-15T13:33:53.086Z,16.00
2022-12-15T13:36:39.884Z,17.25
2022-12-15T13:39:17.210Z,17.33
2022-12-15T13:42:07.909Z,17.25
2022-12-15T13:44:40.968Z,18.00
2022-12-15T13:47:17.408Z,18.00
2022-12-15T13:50:15.117Z,17.25
2022-12-15T13:55:40.401Z,19.25
2022-12-15T13:58:16.740Z,19.00
2022-12-15T14:01:03.994Z,19.25
2022-12-15T14:03:33.523Z,19.00
2022-12-15T14:06:02.159Z,21.00
2022-12-15T14:08:33.269Z,20.00
2022-12-15T14:13:54.390Z,21.00
2022-12-15T14:16:23.969Z,18.00
2022-12-15T14:19:15.084Z,19.25
2022-12-15T14:21:58.943Z,19.25
2022-12-15T14:24:41.280Z,20.00
2022-12-15T14:27:09.700Z,20.00
2022-12-15T14:29:38.469Z,20.75
2022-12-15T14:32:08.555Z,19.75
2022-12-15T14:34:40.222Z,20.00
2022-12-15T14:37:13.831Z,21.25
2022-12-15T14:39:45.220Z,20.00
2022-12-15T14:42:24.235Z,21.00
2022-12-15T14:44:57.800Z,22.00
2022-12-15T14:47:29.895Z,21.00
2022-12-15T14:50:01.672Z,21.50
2022-12-15T14:52:34.201Z,21.00
2022-12-15T14:55:23.203Z,20.25
2022-12-15T14:57:52.979Z,21.50
2022-12-15T15:00:37.673Z,21.25
2022-12-15T15:03:11.323Z,21.25
2022-12-15T15:03:34.897Z,21.00
2022-12-15T15:06:17.852Z,20.00
2022-12-15T15:08:48.613Z,21.00
2022-12-15T15:11:18.484Z,20.00
2022-12-15T15:13:47.502Z,19.25
2022-12-15T15:16:19.347Z,21.00
2022-12-15T15:18:53.660Z,21.50
2022-12-15T15:21:25.713Z,21.25
2022-12-15T15:24:12.276Z,21.25
2022-12-15T15:26:41.105Z,19.50
2022-12-15T15:29:39.392Z,23.00
2022-12-15T15:32:21.435Z,21.00
2022-12-15T15:34:49.984Z,20.00
2022-12-15T15:37:24.499Z,19.00
2022-12-15T15:39:54.848Z,20.25
2022-12-15T15:42:27.918Z,19.50
2022-12-15T15:45:00.732Z,20.50
2022-12-15T15:47:29.441Z,20.33
2022-12-15T15:49:59.797Z,19.00
2022-12-15T15:52:32.397Z,20.75
2022-12-15T15:55:03.968Z,19.00
2022-12-15T15:57:35.103Z,19.25
2022-12-15T16:00:14.343Z,19.33
2022-12-15T16:02:43.395Z,20.00
2022-12-15T16:05:12.196Z,20.00
2022-12-15T16:07:43.268Z,20.33
2022-12-15T16:10:17.868Z,20.00
2022-12-15T16:12:53.459Z,20.00
2022-12-15T16:15:27.253Z,21.25
2022-12-15T16:17:57.106Z,18.50
2022-12-15T16:20:30.161Z,20.00
2022-12-15T16:23:01.643Z,20.00
2022-12-15T16:25:39.017Z,20.00
2022-12-15T16:28:15.255Z,22.00
2022-12-15T16:30:47.249Z,20.00
2022-12-15T16:38:31.204Z,21.00
2022-12-15T16:41:08.547Z,20.50
2022-12-15T16:43:41.528Z,19.00
2022-12-15T16:46:15.689Z,20.67
2022-12-15T16:48:44.679Z,20.00
2022-12-15T16:51:40.462Z,20.00
2022-12-15T16:58:35.642Z,19.00
2022-12-15T17:01:04.473Z,20.50
2022-12-15T17:03:33.362Z,21.00
2022-12-15T17:06:05.306Z,22.00
2022-12-15T17:08:44.218Z,21.00
2022-12-15T17:11:17.716Z,21.00
2022-12-15T17:13:51.650Z,21.50
2022-12-15T17:16:21.415Z,21.00
2022-12-15T17:18:51.816Z,23.25
2022-12-15T17:21:22.190Z,21.00
2022-12-15T17:23:53.935Z,21.00
2022-12-15T17:26:29.086Z,21.25
2022-12-15T17:29:06.718Z,21.25
2022-12-15T17:31:36.151Z,20.25
2022-12-15T17:34:31.945Z,20.00
2022-12-15T17:37:03.333Z,19.33
2022-12-15T17:39:34.537Z,20.50
2022-12-15T17:42:03.453Z,19.50
2022-12-15T17:44:37.844Z,20.00
2022-12-15T17:47:08.588Z,19.00
2022-12-15T17:49:38.955Z,20.25
2022-12-15T17:52:19.469Z,20.50
2022-12-15T17:54:48.078Z,19.00
2022-12-15T17:57:16.387Z,18.00
2022-12-15T17:59:45.029Z,18.33
2022-12-15T18:02:14.574Z,18.00
2022-12-15T18:04:44.132Z,20.00
2022-12-15T18:07:17.527Z,19.00
2022-12-15T18:09:46.630Z,19.00
2022-12-15T18:12:23.117Z,17.00
2022-12-15T18:14:52.862Z,20.00
2022-12-15T18:17:21.285Z,19.00
2022-12-15T18:19:49.840Z,19.00
2022-12-15T18:22:23.904Z,22.25
2022-12-15T18:24:53.980Z,20.00
2022-12-15T18:27:27.591Z,20.25
2022-12-15T18:29:56.836Z,20.00
2022-12-15T18:32:26.566Z,19.00
2022-12-15T18:34:55.480Z,22.00
2022-12-15T18:37:25.288Z,19.00
2022-12-15T18:39:58.319Z,21.33
2022-12-15T18:42:32.485Z,20.25
2022-12-15T18:45:02.661Z,21.25
2022-12-15T18:47:30.938Z,20.50
2022-12-15T18:49:59.872Z,20.25
2022-12-15T18:52:33.103Z,20.00
2022-12-15T18:55:03.346Z,20.00
2022-12-15T18:57:33.640Z,20.00
2022-12-15T19:00:27.973Z,22.00
2022-12-15T19:02:58.396Z,21.00
2022-12-15T19:05:29.139Z,20.25
2022-12-15T19:08:10.489Z,20.00
2022-12-15T19:10:56.166Z,22.25
2022-12-15T19:13:31.928Z,20.00
2022-12-15T19:16:03.380Z,21.00
2022-12-15T19:18:50.528Z,21.25
2022-12-15T19:21:45.390Z,21.00
2022-12-15T19:24:16.953Z,20.67
2022-12-15T19:26:45.414Z,20.25
2022-12-15T19:29:22.652Z,20.00
2022-12-15T19:31:52.192Z,21.00
2022-12-15T19:34:21.130Z,20.75
2022-12-15T19:36:49.618Z,20.33
2022-12-15T19:39:24.024Z,20.00
2022-12-15T19:41:53.619Z,18.00
2022-12-15T19:44:23.389Z,18.00
2022-12-15T19:46:52.613Z,18.50
2022-12-15T19:49:20.775Z,18.00
2022-12-15T19:51:49.519Z,19.25
2022-12-15T19:54:21.585Z,17.00
2022-12-15T19:56:50.140Z,17.25
2022-12-15T19:59:22.534Z,19.00
2022-12-15T20:01:54.372Z,18.00
2022-12-15T20:04:24.642Z,18.00
2022-12-15T20:06:54.581Z,18.00
2022-12-15T20:09:22.945Z,18.00
2022-12-15T20:11:51.366Z,16.50
2022-12-15T20:14:19.576Z,18.25
2022-12-15T20:16:50.598Z,17.67
2022-12-15T20:19:19.397Z,18.00
2022-12-15T20:21:47.900Z,16.00
2022-12-15T20:24:19.057Z,18.00
2022-12-15T20:26:48.806Z,17.00
2022-12-15T20:29:26.495Z,16.00
2022-12-15T20:31:55.951Z,17.25
2022-12-15T20:34:25.149Z,17.25
2022-12-15T20:36:53.555Z,17.00
2022-12-15T20:39:27.577Z,16.25
2022-12-15T20:41:56.854Z,15.00
2022-12-15T20:44:25.305Z,16.00
2022-12-15T20:46:53.857Z,17.25
2022-12-15T20:49:23.005Z,16.00
2022-12-15T20:51:52.007Z,17.50
2022-12-15T20:54:22.517Z,16.00
2022-12-15T20:56:51.419Z,16.00
2022-12-15T20:59:20.428Z,15.00
2022-12-15T21:01:49.825Z,15.00
2022-12-15T21:04:26.064Z,17.25
2022-12-15T21:06:56.554Z,15.25
2022-12-15T21:09:25.401Z,14.25
2022-12-15T21:11:56.595Z,15.25
2022-12-15T21:14:25.159Z,16.00
2022-12-15T21:16:53.894Z,16.00
2022-12-15T21:19:23.166Z,15.00
2022-12-15T21:21:55.592Z,15.50
2022-12-15T21:24:28.678Z,16.25
2022-12-15T21:26:57.968Z,15.25
2022-12-15T21:29:28.412Z,16.00
2022-12-15T21:31:57.518Z,15.00
2022-12-15T21:34:25.835Z,15.25
2022-12-15T21:36:54.959Z,14.00
2022-12-15T21:39:30.021Z,14.00
2022-12-15T21:42:01.940Z,14.25
2022-12-15T21:44:30.288Z,14.25
2022-12-15T21:46:58.920Z,14.33
2022-12-15T21:49:27.342Z,14.00
2022-12-15T21:51:58.184Z,14.25
2022-12-15T21:54:31.391Z,13.50
2022-12-15T21:57:00.912Z,14.25
2022-12-15T21:59:31.800Z,14.00
2022-12-15T22:02:01.968Z,14.50
2022-12-15T22:04:33.158Z,14.00
2022-12-15T22:07:02.028Z,13.25
2022-12-15T22:09:30.280Z,13.25
2022-12-15T22:11:59.089Z,14.33
2022-12-15T22:14:33.353Z,13.67
2022-12-15T22:17:14.901Z,13.25
2022-12-15T22:19:43.447Z,14.00
2022-12-15T22:22:14.304Z,13.00
2022-12-15T22:24:43.214Z,13.00
2022-12-15T22:27:32.565Z,14.25
2022-12-15T22:30:00.763Z,13.75
2022-12-15T22:32:30.587Z,13.33
2022-12-15T22:34:58.771Z,13.67
2022-12-15T22:37:27.293Z,14.25
2022-12-15T22:39:55.495Z,13.00
2022-12-15T22:42:25.139Z,13.25
2022-12-15T22:44:54.850Z,14.25
2022-12-15T22:47:23.591Z,12.50
2022-12-15T22:49:51.882Z,14.25
2022-12-15T22:52:21.371Z,13.25
2022-12-15T22:55:15.053Z,14.25
2022-12-15T22:57:53.002Z,13.25
2022-12-15T23:00:21.390Z,12.75
2022-12-15T23:02:50.049Z,13.33
2022-12-15T23:05:20.576Z,14.25
2022-12-15T23:07:49.220Z,14.25
2022-12-15T23:10:37.799Z,14.00
2022-12-15T23:13:06.566Z,13.25
2022-12-15T23:15:53.141Z,13.00
2022-12-15T23:18:23.365Z,13.25
2022-12-15T23:20:51.894Z,13.00
2022-12-15T23:23:20.469Z,13.25
2022-12-15T23:25:48.696Z,13.25
2022-12-15T23:28:17.209Z,13.25
2022-12-15T23:30:52.087Z,13.25
2022-12-15T23:33:21.276Z,14.25
2022-12-15T23:35:49.519Z,14.00
2022-12-15T23:38:19.176Z,14.00
2022-12-15T23:40:52.832Z,13.00
2022-12-15T23:43:23.830Z,13.00
2022-12-15T23:46:00.800Z,14.00
2022-12-15T23:48:31.832Z,13.25
2022-12-15T23:51:14.992Z,14.00
2022-12-15T23:53:44.511Z,12.75
2022-12-15T23:56:18.833Z,13.00
2022-12-15T23:58:57.963Z,12.25
